Time;durP1;ratioP1;P1;durP2;ratioP2;P2;SDS_P1;SDS_P2;PMS_P1;PMS_P2;Temp;Humidity;BMP_temperature;BMP_pressure;BME280_temperature;BME280_humidity;BME280_pressure;Samples;Min_cycle;Max_cycle;Signal;HPM_P1;HPM_P2
2021/07/12 00:00:47;;;;;;;6.15;4.88;;;;;;;;;;5093222;28;20295;-60
2021/07/12 00:03:15;;;;;;;5.18;4.68;;;;;;;;;;5093309;28;20729;-60
2021/07/12 00:05:47;;;;;;;6.78;5.15;;;;;;;;;;5092546;28;20246;-60
2021/07/12 00:08:15;;;;;;;6.65;4.90;;;;;;;;;;5093011;28;20302;-60
2021/07/12 00:10:44;;;;;;;5.57;5.07;;;;;;;;;;5093585;28;20202;-61
2021/07/12 00:13:12;;;;;;;6.13;4.65;;;;;;;;;;5093044;28;20196;-59
2021/07/12 00:15:40;;;;;;;5.10;4.70;;;;;;;;;;5092780;28;20207;-61
2021/07/12 00:18:10;;;;;;;5.22;4.68;;;;;;;;;;5092907;28;20307;-61
2021/07/12 00:20:38;;;;;;;6.60;4.20;;;;;;;;;;5092821;28;20242;-62
2021/07/12 00:23:07;;;;;;;5.38;4.50;;;;;;;;;;5092537;28;20206;-62
2021/07/12 00:25:35;;;;;;;6.38;4.53;;;;;;;;;;5092577;28;20230;-60
2021/07/12 00:28:03;;;;;;;5.43;4.00;;;;;;;;;;5092832;28;20200;-62
2021/07/12 00:30:32;;;;;;;8.93;4.70;;;;;;;;;;5092724;28;20200;-62
2021/07/12 00:33:00;;;;;;;8.02;4.68;;;;;;;;;;5092990;28;20199;-60
2021/07/12 00:35:29;;;;;;;8.55;5.05;;;;;;;;;;5091793;28;20290;-61
2021/07/12 00:37:58;;;;;;;8.95;4.90;;;;;;;;;;5093105;28;20210;-61
2021/07/12 00:40:27;;;;;;;5.13;4.20;;;;;;;;;;5092667;28;20202;-61
2021/07/12 00:42:55;;;;;;;8.43;4.97;;;;;;;;;;5092358;28;20197;-61
2021/07/12 00:45:25;;;;;;;8.70;4.90;;;;;;;;;;5092596;28;20216;-60
2021/07/12 00:47:53;;;;;;;7.53;4.53;;;;;;;;;;5091915;28;20208;-61
2021/07/12 00:50:23;;;;;;;8.77;4.65;;;;;;;;;;5091840;28;20230;-60
2021/07/12 00:52:53;;;;;;;7.25;4.47;;;;;;;;;;5091802;28;20208;-60
2021/07/12 00:55:23;;;;;;;5.57;4.38;;;;;;;;;;5092171;28;20573;-60
2021/07/12 00:57:51;;;;;;;8.63;4.53;;;;;;;;;;5092386;28;20202;-60
2021/07/12 01:00:21;;;;;;;7.47;4.40;;;;;;;;;;5091996;28;20200;-61
2021/07/12 01:02:49;;;;;;;5.47;4.30;;;;;;;;;;5092369;28;20204;-60
2021/07/12 01:05:18;;;;;;;5.13;4.22;;;;;;;;;;5091850;28;20227;-61
2021/07/12 01:07:47;;;;;;;6.45;4.60;;;;;;;;;;5091599;28;20293;-61
2021/07/12 01:10:17;;;;;;;6.07;4.28;;;;;;;;;;5092295;28;20222;-61
2021/07/12 01:12:49;;;;;;;6.45;4.95;;;;;;;;;;5091957;28;20275;-61
2021/07/12 01:15:19;;;;;;;7.05;4.65;;;;;;;;;;5091893;28;20275;-59
2021/07/12 01:17:54;;;;;;;8.35;4.30;;;;;;;;;;5093988;28;20222;-60
2021/07/12 01:21:02;;;;;;;6.75;4.28;;;;;;;;;;5096127;28;20230;-60
2021/07/12 01:23:34;;;;;;;7.72;4.25;;;;;;;;;;5096112;28;20184;-61
2021/07/12 01:26:21;;;;;;;6.13;4.20;;;;;;;;;;5096227;28;20196;-60
2021/07/12 01:29:14;;;;;;;8.20;4.00;;;;;;;;;;5096265;28;20206;-60
2021/07/12 01:32:09;;;;;;;6.97;3.80;;;;;;;;;;5096274;28;20267;-61
2021/07/12 01:34:41;;;;;;;8.80;4.38;;;;;;;;;;5096795;28;20266;-60
2021/07/12 01:37:14;;;;;;;10.68;4.40;;;;;;;;;;5096481;28;20196;-61
2021/07/12 01:39:44;;;;;;;8.68;3.75;;;;;;;;;;5096999;28;20264;-60
2021/07/12 01:42:16;;;;;;;6.65;4.40;;;;;;;;;;5095861;28;20282;-61
2021/07/12 01:44:46;;;;;;;8.75;4.10;;;;;;;;;;5095762;28;20291;-61
2021/07/12 01:47:16;;;;;;;6.57;3.72;;;;;;;;;;5095663;28;20200;-60
2021/07/12 01:49:57;;;;;;;6.55;3.80;;;;;;;;;;5095275;28;20188;-61
2021/07/12 01:52:30;;;;;;;5.78;3.90;;;;;;;;;;5095460;28;20181;-60
2021/07/12 01:55:00;;;;;;;5.18;3.80;;;;;;;;;;5095392;28;20184;-61
2021/07/12 01:57:31;;;;;;;4.85;4.35;;;;;;;;;;5095360;28;20513;-61
2021/07/12 02:00:01;;;;;;;4.70;4.05;;;;;;;;;;5095191;28;20628;-60
2021/07/12 02:02:30;;;;;;;9.43;4.38;;;;;;;;;;5095527;28;20188;-60
2021/07/12 02:05:01;;;;;;;4.53;3.97;;;;;;;;;;5095273;28;20227;-61
2021/07/12 02:07:30;;;;;;;4.78;4.00;;;;;;;;;;5095121;28;20544;-61
2021/07/12 02:09:58;;;;;;;7.43;4.63;;;;;;;;;;5095389;28;20319;-61
2021/07/12 02:12:28;;;;;;;6.95;4.15;;;;;;;;;;5095214;28;20290;-60
2021/07/12 02:14:57;;;;;;;9.73;4.57;;;;;;;;;;5095354;28;20569;-60
2021/07/12 02:17:27;;;;;;;9.27;4.80;;;;;;;;;;5095248;28;20583;-61
2021/07/12 02:19:55;;;;;;;7.13;4.53;;;;;;;;;;5095072;28;20206;-61
2021/07/12 02:22:26;;;;;;;5.47;4.78;;;;;;;;;;5094691;28;20204;-60
2021/07/12 02:24:56;;;;;;;4.72;4.18;;;;;;;;;;5095046;28;20215;-61
2021/07/12 02:27:25;;;;;;;14.98;4.70;;;;;;;;;;5095187;28;20184;-60
2021/07/12 02:29:55;;;;;;;8.77;4.40;;;;;;;;;;5093881;28;20196;-60
2021/07/12 02:32:23;;;;;;;8.02;4.45;;;;;;;;;;5095270;28;20207;-60
2021/07/12 02:34:52;;;;;;;5.80;4.45;;;;;;;;;;5094595;28;20287;-59
2021/07/12 02:37:20;;;;;;;8.65;4.70;;;;;;;;;;5094752;28;20203;-60
2021/07/12 02:39:50;;;;;;;7.32;4.93;;;;;;;;;;5094722;28;20206;-61
2021/07/12 02:42:19;;;;;;;9.10;4.65;;;;;;;;;;5094768;28;20246;-62
2021/07/12 02:44:48;;;;;;;6.05;4.30;;;;;;;;;;5094654;28;20291;-60
2021/07/12 02:47:16;;;;;;;7.97;4.80;;;;;;;;;;5094606;28;20204;-61
2021/07/12 02:49:45;;;;;;;5.30;4.80;;;;;;;;;;5094096;28;20199;-59
2021/07/12 02:52:18;;;;;;;9.50;5.18;;;;;;;;;;5094022;28;20532;-60
2021/07/12 02:54:48;;;;;;;8.68;4.72;;;;;;;;;;5094405;28;20185;-61
2021/07/12 02:57:17;;;;;;;7.43;4.60;;;;;;;;;;5094251;28;20655;-60
2021/07/12 02:59:46;;;;;;;6.47;4.60;;;;;;;;;;5094142;28;20200;-61
2021/07/12 03:02:14;;;;;;;6.43;4.53;;;;;;;;;;5094442;28;20200;-61
2021/07/12 03:04:42;;;;;;;7.15;5.00;;;;;;;;;;5093912;28;20204;-60
2021/07/12 03:07:13;;;;;;;5.75;4.47;;;;;;;;;;5093876;28;20200;-61
2021/07/12 03:09:43;;;;;;;7.15;4.82;;;;;;;;;;5094089;28;20187;-61
2021/07/12 03:12:13;;;;;;;4.90;4.40;;;;;;;;;;5093887;28;20555;-61
2021/07/12 03:14:47;;;;;;;8.90;5.30;;;;;;;;;;5093818;28;20681;-61
2021/07/12 03:17:16;;;;;;;8.45;4.70;;;;;;;;;;5094288;28;20206;-60
2021/07/12 03:19:45;;;;;;;5.63;4.82;;;;;;;;;;5094119;28;20208;-60
2021/07/12 03:22:15;;;;;;;9.02;5.28;;;;;;;;;;5093561;28;20239;-62
2021/07/12 03:24:43;;;;;;;5.15;4.47;;;;;;;;;;5093687;28;20297;-60
2021/07/12 03:27:13;;;;;;;8.38;4.53;;;;;;;;;;5093456;28;20212;-61
2021/07/12 03:29:41;;;;;;;4.93;4.45;;;;;;;;;;5093829;28;20206;-61
2021/07/12 03:32:12;;;;;;;7.90;4.22;;;;;;;;;;5093445;28;20778;-60
2021/07/12 03:34:41;;;;;;;5.30;4.40;;;;;;;;;;5093771;28;20176;-59
2021/07/12 03:37:09;;;;;;;8.32;5.18;;;;;;;;;;5093545;28;20284;-60
2021/07/12 03:39:38;;;;;;;9.38;5.05;;;;;;;;;;5093199;28;20630;-60
2021/07/12 03:42:06;;;;;;;9.75;4.72;;;;;;;;;;5093511;28;20200;-61
2021/07/12 03:44:34;;;;;;;12.30;4.78;;;;;;;;;;5093559;28;20287;-60
2021/07/12 03:47:04;;;;;;;10.00;5.10;;;;;;;;;;5083329;28;20227;-60
2021/07/12 03:49:34;;;;;;;9.75;4.85;;;;;;;;;;5073524;28;20295;-61
2021/07/12 03:52:03;;;;;;;9.05;5.25;;;;;;;;;;5092104;28;20238;-60
2021/07/12 03:54:31;;;;;;;9.38;4.80;;;;;;;;;;5092990;28;20210;-59
2021/07/12 03:56:59;;;;;;;9.40;4.90;;;;;;;;;;5092918;28;20286;-60
2021/07/12 03:59:27;;;;;;;7.53;4.32;;;;;;;;;;5093061;28;20196;-61
2021/07/12 04:01:55;;;;;;;12.35;4.93;;;;;;;;;;5092860;28;20200;-60
2021/07/12 04:04:24;;;;;;;8.75;5.18;;;;;;;;;;5092660;28;20232;-61
2021/07/12 04:06:53;;;;;;;10.02;4.68;;;;;;;;;;5092771;28;20220;-60
2021/07/12 04:09:21;;;;;;;15.38;5.15;;;;;;;;;;5094420;28;20200;-61
2021/07/12 04:11:55;;;;;;;7.70;4.78;;;;;;;;;;5093099;28;20196;-61
2021/07/12 04:14:23;;;;;;;6.80;4.80;;;;;;;;;;5093131;28;20184;-60
2021/07/12 04:16:52;;;;;;;8.07;5.07;;;;;;;;;;5092774;28;20287;-60
2021/07/12 04:19:20;;;;;;;11.55;5.60;;;;;;;;;;5092684;28;20196;-60
2021/07/12 04:21:48;;;;;;;7.60;4.65;;;;;;;;;;5092657;28;20202;-61
2021/07/12 04:24:17;;;;;;;6.70;4.88;;;;;;;;;;5092540;28;20211;-61
2021/07/12 04:26:45;;;;;;;9.80;4.50;;;;;;;;;;5092798;28;20679;-60
2021/07/12 04:29:14;;;;;;;7.10;4.40;;;;;;;;;;5092657;28;20671;-61
2021/07/12 04:31:42;;;;;;;8.23;4.18;;;;;;;;;;5092541;28;20206;-60
2021/07/12 04:34:10;;;;;;;8.95;4.45;;;;;;;;;;5092352;28;20652;-60
2021/07/12 04:36:38;;;;;;;7.15;4.50;;;;;;;;;;5092437;28;20192;-60
2021/07/12 04:39:06;;;;;;;10.63;4.43;;;;;;;;;;5092433;28;20202;-60
2021/07/12 04:41:36;;;;;;;7.55;3.67;;;;;;;;;;5092566;28;20202;-62
2021/07/12 04:44:04;;;;;;;6.93;3.60;;;;;;;;;;5093108;28;20286;-62
2021/07/12 04:46:32;;;;;;;6.38;4.00;;;;;;;;;;5092661;28;20303;-60
2021/07/12 04:49:01;;;;;;;9.98;3.95;;;;;;;;;;5093079;28;20200;-60
2021/07/12 04:51:29;;;;;;;8.90;3.92;;;;;;;;;;5092278;28;20307;-61
2021/07/12 04:53:57;;;;;;;10.15;3.90;;;;;;;;;;5092235;28;20196;-60
2021/07/12 04:56:25;;;;;;;15.25;3.97;;;;;;;;;;5092955;28;20202;-59
2021/07/12 04:58:56;;;;;;;10.25;4.22;;;;;;;;;;5092975;28;20196;-61
2021/07/12 05:01:24;;;;;;;7.30;3.65;;;;;;;;;;5092878;28;20271;-61
2021/07/12 05:03:56;;;;;;;5.18;4.03;;;;;;;;;;5092525;28;20192;-60
2021/07/12 05:06:24;;;;;;;8.57;3.97;;;;;;;;;;5091754;28;20216;-61
2021/07/12 05:08:52;;;;;;;10.48;3.88;;;;;;;;;;5091924;28;20204;-62
2021/07/12 05:11:20;;;;;;;6.53;3.95;;;;;;;;;;5092693;28;20204;-60
2021/07/12 05:13:49;;;;;;;7.13;2.95;;;;;;;;;;5092733;28;20298;-61
2021/07/12 05:16:19;;;;;;;12.23;3.15;;;;;;;;;;5092475;28;20660;-59
2021/07/12 05:18:48;;;;;;;5.38;2.60;;;;;;;;;;5092745;28;20570;-60
2021/07/12 05:21:16;;;;;;;7.78;2.72;;;;;;;;;;5092451;28;20544;-60
2021/07/12 05:23:44;;;;;;;6.45;2.92;;;;;;;;;;5092175;28;20560;-61
2021/07/12 05:26:12;;;;;;;6.22;2.67;;;;;;;;;;5092223;28;20679;-60
2021/07/12 05:28:42;;;;;;;8.68;3.33;;;;;;;;;;5092648;28;20204;-59
2021/07/12 05:31:10;;;;;;;6.78;2.92;;;;;;;;;;5092420;28;20206;-60
2021/07/12 05:33:40;;;;;;;6.93;2.75;;;;;;;;;;5092677;28;20295;-60
2021/07/12 05:36:08;;;;;;;7.97;2.65;;;;;;;;;;5092443;28;20240;-60
2021/07/12 05:38:36;;;;;;;5.88;2.92;;;;;;;;;;5092103;28;20292;-60
2021/07/12 05:41:04;;;;;;;4.63;3.30;;;;;;;;;;5092435;28;20204;-60
2021/07/12 05:43:33;;;;;;;6.55;3.40;;;;;;;;;;5092571;28;20300;-60
2021/07/12 05:46:01;;;;;;;9.20;3.30;;;;;;;;;;5092368;28;20211;-61
2021/07/12 05:48:29;;;;;;;6.07;2.95;;;;;;;;;;5091917;28;20226;-60
2021/07/12 05:50:59;;;;;;;9.73;3.72;;;;;;;;;;5091904;28;20551;-61
2021/07/12 05:53:27;;;;;;;3.55;3.20;;;;;;;;;;5091913;28;20640;-59
2021/07/12 05:55:55;;;;;;;8.95;3.55;;;;;;;;;;5092085;28;20204;-60
2021/07/12 05:58:23;;;;;;;9.18;3.60;;;;;;;;;;5092318;28;20235;-60
2021/07/12 06:00:52;;;;;;;11.48;3.80;;;;;;;;;;5092340;28;20290;-61
2021/07/12 06:03:20;;;;;;;8.23;3.30;;;;;;;;;;5092375;28;20200;-59
2021/07/12 06:05:49;;;;;;;8.52;3.75;;;;;;;;;;5095363;28;20306;-61
2021/07/12 06:08:18;;;;;;;7.05;3.70;;;;;;;;;;5095830;28;20310;-60
2021/07/12 06:10:46;;;;;;;7.80;3.60;;;;;;;;;;5095877;28;20287;-59
2021/07/12 06:13:14;;;;;;;3.80;3.40;;;;;;;;;;5095945;28;20200;-60
2021/07/12 06:15:43;;;;;;;7.78;3.60;;;;;;;;;;5095780;28;20303;-59
2021/07/12 06:18:14;;;;;;;9.25;3.40;;;;;;;;;;5095868;28;20718;-60
2021/07/12 06:20:43;;;;;;;3.65;3.00;;;;;;;;;;5095237;28;20262;-60
2021/07/12 06:23:11;;;;;;;8.02;3.75;;;;;;;;;;5095423;28;20304;-60
2021/07/12 06:25:41;;;;;;;7.30;3.50;;;;;;;;;;5097202;28;20200;-59
2021/07/12 06:28:09;;;;;;;8.45;3.75;;;;;;;;;;5101254;28;20220;-59
2021/07/12 06:30:37;;;;;;;8.15;3.65;;;;;;;;;;5104278;28;20211;-61
2021/07/12 06:33:06;;;;;;;7.07;3.53;;;;;;;;;;5095589;28;20299;-60
2021/07/12 06:35:34;;;;;;;5.07;3.10;;;;;;;;;;5094764;28;20200;-60
2021/07/12 06:38:02;;;;;;;5.53;3.40;;;;;;;;;;5094807;28;20200;-60
2021/07/12 06:40:30;;;;;;;4.95;3.22;;;;;;;;;;5094510;28;20549;-60
2021/07/12 06:43:00;;;;;;;5.35;3.40;;;;;;;;;;5094361;28;20204;-60
2021/07/12 06:45:28;;;;;;;5.22;3.10;;;;;;;;;;5094394;28;20199;-61
2021/07/12 06:47:56;;;;;;;6.57;3.22;;;;;;;;;;5094405;28;20212;-59
2021/07/12 06:50:25;;;;;;;6.80;3.28;;;;;;;;;;5094294;28;20327;-60
2021/07/12 06:52:53;;;;;;;5.80;3.28;;;;;;;;;;5094108;28;20235;-60
2021/07/12 06:55:21;;;;;;;4.32;3.17;;;;;;;;;;5094205;28;20242;-60
2021/07/12 06:57:49;;;;;;;5.88;3.42;;;;;;;;;;5093638;28;20736;-60
2021/07/12 07:00:19;;;;;;;4.57;2.90;;;;;;;;;;5094358;28;20207;-59
2021/07/12 07:02:47;;;;;;;6.40;3.50;;;;;;;;;;5094175;28;20200;-60
2021/07/12 07:05:15;;;;;;;3.80;3.15;;;;;;;;;;5094184;28;20202;-60
2021/07/12 07:07:43;;;;;;;4.45;3.20;;;;;;;;;;5094024;28;20226;-60
2021/07/12 07:10:12;;;;;;;5.70;3.50;;;;;;;;;;5093793;28;20706;-60
2021/07/12 07:12:40;;;;;;;5.03;3.53;;;;;;;;;;5094129;28;20204;-60
2021/07/12 07:15:09;;;;;;;4.80;3.13;;;;;;;;;;5092927;28;20697;-60
2021/07/12 07:17:39;;;;;;;4.03;3.28;;;;;;;;;;5093985;28;20198;-60
2021/07/12 07:20:08;;;;;;;7.57;2.95;;;;;;;;;;5093766;28;20208;-59
2021/07/12 07:22:36;;;;;;;4.72;3.00;;;;;;;;;;5093798;28;20204;-60
2021/07/12 07:25:05;;;;;;;3.78;3.10;;;;;;;;;;5093862;28;20299;-60
2021/07/12 07:27:40;;;;;;;3.75;3.10;;;;;;;;;;5093511;28;20200;-60
2021/07/12 07:30:09;;;;;;;4.20;3.30;;;;;;;;;;5093491;28;20235;-60
2021/07/12 07:32:38;;;;;;;7.75;3.40;;;;;;;;;;5093769;28;20196;-61
2021/07/12 07:35:07;;;;;;;4.53;2.83;;;;;;;;;;5093482;28;20208;-60
2021/07/12 07:37:36;;;;;;;5.68;3.03;;;;;;;;;;5093473;28;20242;-60
2021/07/12 07:40:05;;;;;;;5.72;2.92;;;;;;;;;;5093617;28;20210;-60
2021/07/12 07:42:33;;;;;;;4.75;3.13;;;;;;;;;;5093576;28;20196;-60
2021/07/12 07:45:02;;;;;;;3.78;2.88;;;;;;;;;;5093497;28;20192;-59
2021/07/12 07:47:30;;;;;;;5.20;3.20;;;;;;;;;;5093162;28;20207;-60
2021/07/12 07:50:20;;;;;;;10.82;3.45;;;;;;;;;;5093243;28;20232;-60
2021/07/12 07:52:49;;;;;;;6.15;3.60;;;;;;;;;;5093318;28;20227;-60
2021/07/12 07:55:17;;;;;;;5.70;3.30;;;;;;;;;;5093224;28;20541;-60
2021/07/12 07:57:45;;;;;;;4.88;2.85;;;;;;;;;;5093232;28;20196;-60
2021/07/12 08:00:15;;;;;;;8.82;3.60;;;;;;;;;;5092817;28;20204;-60
2021/07/12 08:02:43;;;;;;;4.82;3.72;;;;;;;;;;5093110;28;20199;-63
2021/07/12 08:05:12;;;;;;;6.10;3.35;;;;;;;;;;5093164;28;20200;-60
2021/07/12 08:07:41;;;;;;;6.82;3.20;;;;;;;;;;5092871;28;20196;-61
2021/07/12 08:10:11;;;;;;;4.72;3.30;;;;;;;;;;5092666;28;20299;-61
2021/07/12 08:12:39;;;;;;;5.20;2.95;;;;;;;;;;5093208;28;20234;-61
2021/07/12 08:15:08;;;;;;;3.15;2.85;;;;;;;;;;5092756;28;20239;-61
2021/07/12 08:17:37;;;;;;;4.45;2.70;;;;;;;;;;5093017;28;20195;-59
2021/07/12 08:20:05;;;;;;;4.97;3.00;;;;;;;;;;5092970;28;20287;-61
2021/07/12 08:22:47;;;;;;;5.60;2.88;;;;;;;;;;5092908;28;20203;-61
2021/07/12 08:25:15;;;;;;;3.78;2.85;;;;;;;;;;5092719;28;20271;-60
2021/07/12 08:27:44;;;;;;;2.30;2.08;;;;;;;;;;5091803;28;20192;-60
2021/07/12 08:30:13;;;;;;;2.72;2.53;;;;;;;;;;5092604;28;20206;-60
2021/07/12 08:32:41;;;;;;;4.50;3.10;;;;;;;;;;5092742;28;20196;-60
2021/07/12 08:35:10;;;;;;;3.63;2.88;;;;;;;;;;5092685;28;20793;-60
2021/07/12 08:37:39;;;;;;;3.00;2.70;;;;;;;;;;5092229;28;20207;-60
2021/07/12 08:40:10;;;;;;;4.22;2.40;;;;;;;;;;5092316;28;20204;-60
2021/07/12 08:42:38;;;;;;;3.72;2.40;;;;;;;;;;5092581;28;20194;-61
2021/07/12 08:45:07;;;;;;;3.00;2.58;;;;;;;;;;5092619;28;20286;-61
2021/07/12 08:47:36;;;;;;;2.70;2.45;;;;;;;;;;5092214;28;20203;-61
2021/07/12 08:50:04;;;;;;;2.55;2.35;;;;;;;;;;5092050;28;20231;-61
2021/07/12 08:52:32;;;;;;;4.78;2.63;;;;;;;;;;5091751;28;20619;-60
2021/07/12 08:55:04;;;;;;;2.55;2.10;;;;;;;;;;5092187;28;20271;-62
2021/07/12 08:57:33;;;;;;;3.08;2.40;;;;;;;;;;5092218;28;20200;-61
2021/07/12 09:00:02;;;;;;;4.10;2.42;;;;;;;;;;5092114;28;20196;-60
2021/07/12 09:02:30;;;;;;;2.63;2.42;;;;;;;;;;5092344;28;20258;-62
2021/07/12 09:04:58;;;;;;;2.67;2.47;;;;;;;;;;5092064;28;20208;-61
2021/07/12 09:07:28;;;;;;;3.42;2.70;;;;;;;;;;5092039;28;20199;-59
2021/07/12 09:09:57;;;;;;;4.32;3.08;;;;;;;;;;5092051;28;20311;-60
2021/07/12 09:12:38;;;;;;;5.78;3.10;;;;;;;;;;5092284;28;20286;-61
2021/07/12 09:15:08;;;;;;;3.45;3.10;;;;;;;;;;5091931;28;20279;-59
2021/07/12 09:17:37;;;;;;;3.40;3.00;;;;;;;;;;5092103;28;20198;-59
2021/07/12 09:20:07;;;;;;;3.60;3.15;;;;;;;;;;5074571;28;20325;-61
2021/07/12 09:22:36;;;;;;;3.10;2.80;;;;;;;;;;5071766;28;20201;-60
2021/07/12 09:25:08;;;;;;;4.15;3.10;;;;;;;;;;5071838;28;20200;-61
2021/07/12 09:27:38;;;;;;;2.90;2.70;;;;;;;;;;5071883;28;20271;-60
2021/07/12 09:30:08;;;;;;;4.47;3.00;;;;;;;;;;5071729;28;20221;-60
2021/07/12 09:32:38;;;;;;;3.80;2.65;;;;;;;;;;5071550;28;20287;-60
2021/07/12 09:35:08;;;;;;;2.75;2.53;;;;;;;;;;5071825;28;20185;-60
2021/07/12 09:37:38;;;;;;;4.10;2.60;;;;;;;;;;5071306;28;20287;-61
2021/07/12 09:40:07;;;;;;;3.15;2.60;;;;;;;;;;5075473;28;20184;-61
2021/07/12 09:42:36;;;;;;;3.95;3.00;;;;;;;;;;5087196;28;20203;-60
2021/07/12 09:45:05;;;;;;;3.65;2.75;;;;;;;;;;5096377;28;20200;-59
2021/07/12 09:47:36;;;;;;;2.97;2.72;;;;;;;;;;5095579;28;20207;-61
2021/07/12 09:50:08;;;;;;;3.10;2.80;;;;;;;;;;5095613;28;20232;-60
2021/07/12 09:52:40;;;;;;;2.95;2.47;;;;;;;;;;5095634;28;20259;-60
2021/07/12 09:55:09;;;;;;;4.85;2.40;;;;;;;;;;5095522;28;20196;-61
2021/07/12 09:57:39;;;;;;;2.40;2.20;;;;;;;;;;5095367;28;20684;-60
2021/07/12 10:00:09;;;;;;;3.17;2.58;;;;;;;;;;5095673;28;20195;-60
2021/07/12 10:02:40;;;;;;;2.83;2.63;;;;;;;;;;5095624;28;20211;-60
2021/07/12 10:05:09;;;;;;;3.28;2.70;;;;;;;;;;5095533;28;20299;-60
2021/07/12 10:07:38;;;;;;;2.97;2.40;;;;;;;;;;5095448;28;20211;-60
2021/07/12 10:10:08;;;;;;;2.90;2.35;;;;;;;;;;5095136;28;20312;-60
2021/07/12 10:12:37;;;;;;;2.92;2.35;;;;;;;;;;5095157;28;20563;-60
2021/07/12 10:15:05;;;;;;;3.78;2.30;;;;;;;;;;5095370;28;20285;-60
2021/07/12 10:17:34;;;;;;;2.38;2.17;;;;;;;;;;5095242;28;20223;-60
2021/07/12 10:20:04;;;;;;;3.13;2.35;;;;;;;;;;5095339;28;20694;-61
2021/07/12 10:22:34;;;;;;;3.13;2.30;;;;;;;;;;5094950;28;20825;-60
2021/07/12 10:25:06;;;;;;;3.88;2.10;;;;;;;;;;5095042;28;20200;-61
2021/07/12 10:27:47;;;;;;;2.47;2.00;;;;;;;;;;5094465;28;20279;-64
2021/07/12 10:30:22;;;;;;;2.80;2.13;;;;;;;;;;5094956;28;20200;-60
2021/07/12 10:32:52;;;;;;;3.33;2.20;;;;;;;;;;5095116;28;20184;-61
2021/07/12 10:35:34;;;;;;;2.40;2.20;;;;;;;;;;5095020;28;20294;-61
2021/07/12 10:38:03;;;;;;;4.00;2.38;;;;;;;;;;5094959;28;20283;-59
2021/07/12 10:40:44;;;;;;;2.20;2.10;;;;;;;;;;5094584;28;20287;-60
2021/07/12 10:43:12;;;;;;;3.45;2.20;;;;;;;;;;5094531;28;20285;-61
2021/07/12 10:45:42;;;;;;;2.22;2.13;;;;;;;;;;5094427;28;20782;-61
2021/07/12 10:48:11;;;;;;;2.05;1.95;;;;;;;;;;5094330;28;20840;-61
2021/07/12 10:50:48;;;;;;;2.15;2.05;;;;;;;;;;5093288;28;20259;-60
2021/07/12 10:53:46;;;;;;;3.15;2.10;;;;;;;;;;5074393;28;20193;-60
2021/07/12 10:56:19;;;;;;;2.70;2.03;;;;;;;;;;5074411;28;20284;-60
2021/07/12 10:58:48;;;;;;;2.20;1.88;;;;;;;;;;5074325;28;20197;-58
2021/07/12 11:01:18;;;;;;;1.85;1.75;;;;;;;;;;5074277;28;20287;-60
2021/07/12 11:03:48;;;;;;;2.25;2.10;;;;;;;;;;5074254;28;20280;-59
2021/07/12 11:06:20;;;;;;;2.00;1.90;;;;;;;;;;5074114;28;20192;-61
2021/07/12 11:08:49;;;;;;;2.50;2.30;;;;;;;;;;5073866;28;21104;-60
2021/07/12 11:11:32;;;;;;;1.98;1.88;;;;;;;;;;5074014;28;20216;-60
2021/07/12 11:14:01;;;;;;;2.17;2.00;;;;;;;;;;5073558;28;20291;-60
2021/07/12 11:16:37;;;;;;;1.85;1.75;;;;;;;;;;5074278;28;20200;-60
2021/07/12 11:19:24;;;;;;;1.90;1.80;;;;;;;;;;5075217;28;20285;-60
2021/07/12 11:21:54;;;;;;;2.60;2.40;;;;;;;;;;5075325;28;20224;-60
2021/07/12 11:24:23;;;;;;;2.40;2.20;;;;;;;;;;5074096;28;20201;-60
2021/07/12 11:26:53;;;;;;;2.00;1.90;;;;;;;;;;5073882;28;20293;-59
2021/07/12 11:29:28;;;;;;;2.10;2.00;;;;;;;;;;5073245;28;20224;-60
2021/07/12 11:31:57;;;;;;;2.30;2.10;;;;;;;;;;5073524;28;20207;-60
2021/07/12 11:34:27;;;;;;;2.70;2.30;;;;;;;;;;5073179;28;20200;-60
2021/07/12 11:36:58;;;;;;;3.25;1.98;;;;;;;;;;5073488;28;20283;-60
2021/07/12 11:39:42;;;;;;;2.72;2.17;;;;;;;;;;5073248;28;20181;-60
2021/07/12 11:42:17;;;;;;;2.08;1.88;;;;;;;;;;5073058;28;20704;-60
2021/07/12 11:44:46;;;;;;;2.17;2.08;;;;;;;;;;5073393;28;20291;-61
2021/07/12 11:47:15;;;;;;;2.28;2.10;;;;;;;;;;5073380;28;20640;-60
2021/07/12 11:49:50;;;;;;;2.03;1.88;;;;;;;;;;5072911;28;20192;-61
2021/07/12 11:52:19;;;;;;;2.72;2.22;;;;;;;;;;5085358;28;20555;-61
2021/07/12 11:54:47;;;;;;;2.35;2.15;;;;;;;;;;5093252;28;20287;-60
2021/07/12 11:57:16;;;;;;;2.20;2.00;;;;;;;;;;5093134;28;20204;-59
2021/07/12 11:59:46;;;;;;;2.28;2.08;;;;;;;;;;5093210;28;20208;-61
2021/07/12 12:02:15;;;;;;;2.28;2.17;;;;;;;;;;5093037;28;20200;-60
2021/07/12 12:04:45;;;;;;;2.35;2.15;;;;;;;;;;5093244;28;20203;-60
2021/07/12 12:07:22;;;;;;;2.40;2.20;;;;;;;;;;5093118;28;20216;-60
2021/07/12 12:09:50;;;;;;;3.55;2.60;;;;;;;;;;5093056;28;20188;-61
2021/07/12 12:12:23;;;;;;;3.42;2.20;;;;;;;;;;5093119;28;20304;-61
2021/07/12 12:14:51;;;;;;;3.50;1.98;;;;;;;;;;5093030;28;20200;-61
2021/07/12 12:17:22;;;;;;;2.05;1.95;;;;;;;;;;5092785;28;20668;-60
2021/07/12 12:20:05;;;;;;;2.38;1.80;;;;;;;;;;5092993;28;20188;-61
2021/07/12 12:22:34;;;;;;;2.22;2.05;;;;;;;;;;5092913;28;20215;-61
2021/07/12 12:25:05;;;;;;;2.22;2.08;;;;;;;;;;5092756;28;20200;-60
2021/07/12 12:27:34;;;;;;;1.85;1.75;;;;;;;;;;5092695;28;20245;-61
2021/07/12 12:30:02;;;;;;;2.15;2.05;;;;;;;;;;5092703;28;20203;-61
2021/07/12 12:32:31;;;;;;;2.53;1.95;;;;;;;;;;5092614;28;20199;-59
2021/07/12 12:35:02;;;;;;;2.05;1.95;;;;;;;;;;5093061;28;20198;-61
2021/07/12 12:37:41;;;;;;;2.00;1.90;;;;;;;;;;5092690;28;20208;-60
2021/07/12 12:40:11;;;;;;;2.03;1.92;;;;;;;;;;5092515;28;20280;-60
2021/07/12 12:42:39;;;;;;;2.33;1.90;;;;;;;;;;5092238;28;20711;-60
2021/07/12 12:45:07;;;;;;;2.35;2.15;;;;;;;;;;5092536;28;20306;-59
2021/07/12 12:47:36;;;;;;;2.60;2.25;;;;;;;;;;5092244;28;20648;-60
2021/07/12 12:50:12;;;;;;;2.40;2.20;;;;;;;;;;5091997;28;20234;-61
2021/07/12 12:52:42;;;;;;;1.90;1.80;;;;;;;;;;5092225;28;20188;-60
2021/07/12 12:55:12;;;;;;;2.67;2.00;;;;;;;;;;5092279;28;20200;-60
2021/07/12 12:57:40;;;;;;;3.35;1.85;;;;;;;;;;5092350;28;20203;-61
2021/07/12 13:00:14;;;;;;;1.98;1.77;;;;;;;;;;5092310;28;20191;-60
2021/07/12 13:02:43;;;;;;;2.08;1.98;;;;;;;;;;5091967;28;20291;-61
2021/07/12 13:05:16;;;;;;;2.78;2.10;;;;;;;;;;5092378;28;20196;-61
2021/07/12 13:07:48;;;;;;;2.35;1.85;;;;;;;;;;5092050;28;20263;-60
2021/07/12 13:10:22;;;;;;;2.15;2.00;;;;;;;;;;5092088;28;20198;-60
2021/07/12 13:12:51;;;;;;;2.75;2.15;;;;;;;;;;5092959;28;20206;-60
2021/07/12 13:15:21;;;;;;;2.13;2.00;;;;;;;;;;5098924;28;20609;-61
2021/07/12 13:17:50;;;;;;;1.83;1.63;;;;;;;;;;5098936;28;20291;-64
2021/07/12 13:20:22;;;;;;;2.83;2.08;;;;;;;;;;5098897;28;20202;-63
2021/07/12 13:22:52;;;;;;;1.90;1.80;;;;;;;;;;5098722;28;20206;-63
2021/07/12 13:25:24;;;;;;;1.77;1.67;;;;;;;;;;5098933;28;20182;-64
2021/07/12 13:27:54;;;;;;;2.22;2.00;;;;;;;;;;5098634;28;20643;-64
2021/07/12 13:30:23;;;;;;;2.00;1.90;;;;;;;;;;5098831;28;20239;-64
2021/07/12 13:32:52;;;;;;;2.20;2.00;;;;;;;;;;5098786;28;20202;-63
2021/07/12 13:35:22;;;;;;;2.50;2.00;;;;;;;;;;5098821;28;20195;-63
2021/07/12 13:37:52;;;;;;;2.45;2.10;;;;;;;;;;5098210;28;20204;-64
2021/07/12 13:40:21;;;;;;;2.00;1.80;;;;;;;;;;5098314;28;20210;-63
2021/07/12 13:42:50;;;;;;;3.45;2.00;;;;;;;;;;5098371;28;20286;-65
2021/07/12 13:45:19;;;;;;;1.85;1.75;;;;;;;;;;5098659;28;20210;-64
2021/07/12 13:47:48;;;;;;;1.80;1.70;;;;;;;;;;5098589;28;20290;-63
2021/07/12 13:50:18;;;;;;;1.70;1.60;;;;;;;;;;5098267;28;20945;-64
2021/07/12 13:52:47;;;;;;;3.08;1.77;;;;;;;;;;5081863;28;20215;-65
2021/07/12 13:55:15;;;;;;;2.95;1.75;;;;;;;;;;5078014;28;20759;-62
2021/07/12 13:57:46;;;;;;;1.92;1.83;;;;;;;;;;5078010;28;20686;-64
2021/07/12 14:00:18;;;;;;;1.63;1.52;;;;;;;;;;5078228;28;20617;-62
2021/07/12 14:02:47;;;;;;;1.88;1.77;;;;;;;;;;5077934;28;20635;-64
2021/07/12 14:05:16;;;;;;;1.80;1.70;;;;;;;;;;5078265;28;20210;-63
2021/07/12 14:07:44;;;;;;;3.10;1.65;;;;;;;;;;5077819;28;20243;-64
2021/07/12 14:10:14;;;;;;;4.03;2.08;;;;;;;;;;5077859;28;20204;-64
2021/07/12 14:12:42;;;;;;;1.70;1.60;;;;;;;;;;5078085;28;20223;-63
2021/07/12 14:15:13;;;;;;;2.65;1.70;;;;;;;;;;5078042;28;20688;-64
2021/07/12 14:17:41;;;;;;;1.75;1.65;;;;;;;;;;5078243;28;20180;-63
2021/07/12 14:20:10;;;;;;;1.63;1.30;;;;;;;;;;5078086;28;20207;-64
2021/07/12 14:22:39;;;;;;;1.63;1.52;;;;;;;;;;5077863;28;20231;-63
2021/07/12 14:25:08;;;;;;;2.25;1.60;;;;;;;;;;5075283;28;20204;-62
2021/07/12 14:27:36;;;;;;;2.53;1.90;;;;;;;;;;5075311;28;20200;-63
2021/07/12 14:30:05;;;;;;;2.10;1.55;;;;;;;;;;5075057;28;20204;-64
2021/07/12 14:32:34;;;;;;;1.95;1.85;;;;;;;;;;5075379;28;20617;-64
2021/07/12 14:35:02;;;;;;;1.58;1.48;;;;;;;;;;5074752;28;20665;-64
2021/07/12 14:37:31;;;;;;;2.00;1.70;;;;;;;;;;5074547;28;20238;-64
2021/07/12 14:39:59;;;;;;;2.80;1.90;;;;;;;;;;5074928;28;20299;-63
2021/07/12 14:42:27;;;;;;;2.55;1.60;;;;;;;;;;5075787;28;20196;-63
2021/07/12 14:44:55;;;;;;;1.90;1.80;;;;;;;;;;5075157;28;20291;-65
2021/07/12 14:47:23;;;;;;;1.73;1.63;;;;;;;;;;5074674;28;20204;-64
2021/07/12 14:49:53;;;;;;;1.60;1.50;;;;;;;;;;5076064;28;20284;-64
2021/07/12 14:52:21;;;;;;;2.13;1.80;;;;;;;;;;5094717;28;20298;-63
2021/07/12 14:54:49;;;;;;;1.60;1.50;;;;;;;;;;5094578;28;20291;-63
2021/07/12 14:57:17;;;;;;;1.58;1.48;;;;;;;;;;5094573;28;20233;-63
2021/07/12 14:59:46;;;;;;;1.67;1.58;;;;;;;;;;5094267;28;20295;-64